Terminal Aerodrome Forecast
Issued by NWS Wichita, KS

Home | Current Version | Previous Version | Text Only | Print | Product List | Glossary On
Versions: 1 2 3 4 5 6 7 8 9 10 11 12 13 14
000
FTUS43 KICT 091120
TAFICT
TAF
KICT 091120Z 0912/1012 VRB03KT P6SM BKN050 BKN120
     FM091600 15011KT P6SM SCT050 BKN080
     FM092300 16006KT P6SM SCT080 BKN120
     FM100300 16007KT P6SM SCT150=

USA.gov is the U.S. government's official web portal to all federal, state and local government web resources and services.